createdAt,value
2019-02-23T00:00:01.771Z,0
2019-02-23T00:01:03.205Z,0
2019-02-23T00:02:05.006Z,0
2019-02-23T00:03:06.571Z,0
2019-02-23T00:04:08.165Z,0
2019-02-23T00:05:09.877Z,0
2019-02-23T00:06:11.321Z,0
2019-02-23T00:07:12.707Z,0
2019-02-23T00:08:14.694Z,0
2019-02-23T00:09:16.270Z,0
2019-02-23T00:10:18.035Z,0
2019-02-23T00:11:19.480Z,0
2019-02-23T00:12:22.092Z,0
2019-02-23T00:13:23.781Z,0
2019-02-23T00:14:25.527Z,0
2019-02-23T00:15:26.947Z,0
2019-02-23T00:16:28.784Z,0
2019-02-23T00:17:30.238Z,0
2019-02-23T00:18:31.648Z,0
2019-02-23T00:19:33.313Z,0
2019-02-23T00:20:34.714Z,0
2019-02-23T00:21:36.300Z,0
2019-02-23T00:22:37.848Z,0
2019-02-23T00:23:39.268Z,0
2019-02-23T00:24:40.928Z,0
2019-02-23T00:25:42.380Z,0
2019-02-23T00:26:44.019Z,0
2019-02-23T00:27:45.462Z,0
2019-02-23T00:28:47.091Z,0
2019-02-23T00:29:48.741Z,0
2019-02-23T00:30:50.411Z,0
2019-02-23T00:31:51.974Z,0
2019-02-23T00:32:53.478Z,0
2019-02-23T00:33:55.166Z,0
2019-02-23T00:34:56.571Z,0
2019-02-23T00:35:58.015Z,0
2019-02-23T00:36:59.687Z,0
2019-02-23T00:38:01.127Z,0
2019-02-23T00:39:02.557Z,0
2019-02-23T00:40:05.448Z,0
2019-02-23T00:41:08.038Z,0
2019-02-23T00:42:09.525Z,0
2019-02-23T00:43:10.928Z,0
2019-02-23T00:44:12.517Z,0
2019-02-23T00:45:14.286Z,0
2019-02-23T00:46:15.891Z,0
2019-02-23T00:47:17.298Z,0
2019-02-23T00:48:18.959Z,0
2019-02-23T00:49:20.513Z,0
2019-02-23T00:50:22.049Z,0
2019-02-23T00:51:23.705Z,0
2019-02-23T00:52:25.281Z,0
2019-02-23T00:53:26.764Z,0
2019-02-23T00:54:28.452Z,0
2019-02-23T00:55:30.075Z,0
2019-02-23T00:56:31.611Z,0
2019-02-23T00:57:33.166Z,0
2019-02-23T00:58:34.605Z,0
2019-02-23T00:59:36.130Z,0
2019-02-23T01:00:37.710Z,0
2019-02-23T01:01:39.191Z,0
2019-02-23T01:02:40.783Z,0
2019-02-23T01:03:42.220Z,0
2019-02-23T01:04:43.663Z,0
2019-02-23T01:05:45.317Z,0
2019-02-23T01:06:46.764Z,0
2019-02-23T01:07:48.204Z,0
2019-02-23T01:08:50.043Z,0
2019-02-23T01:09:51.660Z,0
2019-02-23T01:10:58.240Z,0
2019-02-23T01:11:54.789Z,0
2019-02-23T01:12:56.577Z,0
2019-02-23T01:13:58.023Z,0
2019-02-23T01:15:00.304Z,0
2019-02-23T01:16:01.586Z,0
2019-02-23T01:17:03.325Z,0
2019-02-23T01:18:04.948Z,0
2019-02-23T01:19:06.486Z,0
2019-02-23T01:20:07.910Z,0
2019-02-23T01:21:09.592Z,0
2019-02-23T01:22:11.196Z,0
2019-02-23T01:23:12.923Z,0
2019-02-23T01:24:14.332Z,0
2019-02-23T01:25:16.019Z,0
2019-02-23T01:26:17.448Z,0
2019-02-23T01:27:19.071Z,0
2019-02-23T01:28:20.507Z,0
2019-02-23T01:29:21.960Z,0
2019-02-23T01:30:23.762Z,0
2019-02-23T01:31:25.216Z,0
2019-02-23T01:32:27.119Z,0
2019-02-23T01:33:28.709Z,0
2019-02-23T01:34:30.141Z,0
2019-02-23T01:35:31.837Z,0
2019-02-23T01:36:33.422Z,0
2019-02-23T01:37:34.880Z,0
2019-02-23T01:38:36.369Z,0
2019-02-23T01:39:37.962Z,0
2019-02-23T01:40:39.387Z,0
2019-02-23T01:41:40.806Z,0
2019-02-23T01:42:42.639Z,0
2019-02-23T01:43:44.222Z,0
2019-02-23T01:44:45.645Z,0
2019-02-23T01:45:47.220Z,0
2019-02-23T01:46:48.657Z,0
2019-02-23T01:47:50.210Z,0
2019-02-23T01:48:51.740Z,0
2019-02-23T01:49:58.808Z,0
2019-02-23T01:50:54.976Z,0
2019-02-23T01:51:56.733Z,0
2019-02-23T01:52:58.584Z,0
2019-02-23T01:54:00.033Z,0
2019-02-23T01:55:01.695Z,0
2019-02-23T01:56:03.108Z,0
2019-02-23T01:57:04.918Z,0
2019-02-23T01:58:06.347Z,0
2019-02-23T01:59:08.009Z,0
2019-02-23T02:00:09.475Z,0
2019-02-23T02:01:11.089Z,0
2019-02-23T02:02:12.688Z,0
2019-02-23T02:03:14.384Z,0
2019-02-23T02:04:15.816Z,0
2019-02-23T02:05:17.247Z,0
2019-02-23T02:06:18.882Z,0
2019-02-23T02:07:20.292Z,0
2019-02-23T02:08:21.777Z,0
2019-02-23T02:09:23.400Z,0
2019-02-23T02:10:24.839Z,0
2019-02-23T02:11:26.619Z,0
2019-02-23T02:12:28.049Z,0
2019-02-23T02:13:29.592Z,0
2019-02-23T02:14:31.015Z,0
2019-02-23T02:15:32.474Z,0
2019-02-23T02:16:34.090Z,0
2019-02-23T02:17:35.502Z,0
2019-02-23T02:18:36.949Z,0
2019-02-23T02:19:38.659Z,0
2019-02-23T02:20:40.069Z,0
2019-02-23T02:21:41.504Z,0
2019-02-23T02:22:43.245Z,0
2019-02-23T02:23:44.654Z,0
2019-02-23T02:24:46.119Z,0
2019-02-23T02:25:47.714Z,0
2019-02-23T02:26:49.141Z,0
2019-02-23T02:27:50.541Z,0
2019-02-23T02:28:52.227Z,0
2019-02-23T02:29:53.887Z,0
2019-02-23T02:30:55.487Z,0
2019-02-23T02:31:56.941Z,0
2019-02-23T02:32:58.579Z,0
2019-02-23T02:34:00.022Z,0
2019-02-23T02:35:01.449Z,0
2019-02-23T02:36:02.873Z,0
2019-02-23T02:37:04.286Z,0
2019-02-23T02:38:05.775Z,0
2019-02-23T02:39:07.196Z,0
2019-02-23T02:40:08.610Z,0
2019-02-23T02:41:10.025Z,0
2019-02-23T02:42:11.562Z,0
2019-02-23T02:43:13.120Z,0
2019-02-23T02:44:14.739Z,0
2019-02-23T02:45:16.180Z,0
2019-02-23T02:46:17.892Z,0
2019-02-23T02:47:19.289Z,0
2019-02-23T02:48:20.838Z,0
2019-02-23T02:49:22.980Z,0
2019-02-23T02:50:26.395Z,0
2019-02-23T02:51:27.921Z,0
2019-02-23T02:52:29.454Z,0
2019-02-23T02:53:30.877Z,0
2019-02-23T02:54:34.029Z,0
2019-02-23T02:55:35.368Z,0
2019-02-23T02:56:37.098Z,0
2019-02-23T02:57:38.987Z,0
2019-02-23T02:58:40.696Z,0
2019-02-23T02:59:42.195Z,0
2019-02-23T03:00:43.607Z,0
2019-02-23T03:01:45.296Z,0
2019-02-23T03:02:47.011Z,0
2019-02-23T03:03:48.788Z,0
2019-02-23T03:04:50.578Z,0
2019-02-23T03:05:51.993Z,0
2019-02-23T03:06:53.526Z,0
2019-02-23T03:07:55.179Z,0
2019-02-23T03:08:56.909Z,0
2019-02-23T03:09:58.439Z,0
2019-02-23T03:11:00.168Z,0
2019-02-23T03:12:01.605Z,0
2019-02-23T03:13:03.204Z,0
2019-02-23T03:14:04.760Z,0
2019-02-23T03:15:06.505Z,0
2019-02-23T03:16:08.039Z,0
2019-02-23T03:17:09.759Z,0
2019-02-23T03:18:11.303Z,0
2019-02-23T03:19:12.860Z,0
2019-02-23T03:20:14.254Z,0
2019-02-23T03:21:15.685Z,0
2019-02-23T03:22:17.385Z,0
2019-02-23T03:23:18.812Z,0
2019-02-23T03:24:20.384Z,0
2019-02-23T03:25:22.263Z,0
2019-02-23T03:26:23.657Z,0
2019-02-23T03:27:25.200Z,0
2019-02-23T03:28:26.613Z,0
2019-02-23T03:29:28.701Z,0
2019-02-23T03:30:30.147Z,0
2019-02-23T03:31:31.852Z,0
2019-02-23T03:32:33.386Z,0
2019-02-23T03:33:35.060Z,0
2019-02-23T03:34:36.580Z,0
2019-02-23T03:35:39.093Z,0
2019-02-23T03:36:40.544Z,0
2019-02-23T03:37:42.269Z,0
2019-02-23T03:38:43.790Z,0
2019-02-23T03:39:45.501Z,0
2019-02-23T03:40:46.966Z,0
2019-02-23T03:41:48.639Z,0
2019-02-23T03:42:50.511Z,0
2019-02-23T03:43:51.983Z,0
2019-02-23T03:44:53.578Z,0
2019-02-23T03:45:55.330Z,0
2019-02-23T03:46:56.962Z,0
2019-02-23T03:47:58.667Z,0
2019-02-23T03:49:00.132Z,0
2019-02-23T03:50:01.806Z,0
2019-02-23T03:51:03.195Z,0
2019-02-23T03:52:04.900Z,0
2019-02-23T03:53:06.290Z,0
2019-02-23T03:54:07.964Z,0
2019-02-23T03:55:09.389Z,0
2019-02-23T03:56:11.029Z,0
2019-02-23T03:57:12.445Z,0
2019-02-23T03:58:14.289Z,0
2019-02-23T03:59:15.699Z,0
2019-02-23T04:00:17.207Z,0
2019-02-23T04:01:18.777Z,0
2019-02-23T04:02:20.331Z,0
2019-02-23T04:03:21.753Z,0
2019-02-23T04:04:23.387Z,0
2019-02-23T04:05:24.807Z,0
2019-02-23T04:06:26.442Z,0
2019-02-23T04:07:28.226Z,0
2019-02-23T04:08:29.792Z,0
2019-02-23T04:09:31.203Z,0
2019-02-23T04:10:32.864Z,0
2019-02-23T04:11:34.386Z,0
2019-02-23T04:12:35.878Z,0
2019-02-23T04:13:37.811Z,0
2019-02-23T04:14:39.235Z,0
2019-02-23T04:15:40.725Z,0
2019-02-23T04:16:42.320Z,0
2019-02-23T04:17:43.731Z,0
2019-02-23T04:18:45.367Z,0
2019-02-23T04:19:46.775Z,0
2019-02-23T04:21:00.824Z,0
2019-02-23T04:21:50.150Z,0
2019-02-23T04:22:51.955Z,0
2019-02-23T04:23:55.144Z,0
2019-02-23T04:24:55.203Z,0
2019-02-23T04:25:56.634Z,0
2019-02-23T04:26:58.734Z,0
2019-02-23T04:28:00.400Z,0
2019-02-23T04:29:01.818Z,0
2019-02-23T04:30:03.221Z,0
2019-02-23T04:31:04.920Z,0
2019-02-23T04:32:06.312Z,0
2019-02-23T04:33:07.818Z,0
2019-02-23T04:34:09.230Z,0
2019-02-23T04:35:10.901Z,0
2019-02-23T04:36:12.328Z,0
2019-02-23T04:37:13.976Z,0
2019-02-23T04:38:15.438Z,0
2019-02-23T04:39:17.078Z,0
2019-02-23T04:40:18.520Z,0
2019-02-23T04:41:20.180Z,0
2019-02-23T04:42:21.613Z,0
2019-02-23T04:43:23.242Z,0
2019-02-23T04:44:24.685Z,0
2019-02-23T04:45:26.372Z,0
2019-02-23T04:46:27.800Z,0
2019-02-23T04:47:29.219Z,0
2019-02-23T04:48:30.865Z,0
2019-02-23T04:49:32.270Z,0
2019-02-23T04:50:33.704Z,0
2019-02-23T04:51:35.409Z,0
2019-02-23T04:52:36.835Z,0
2019-02-23T04:53:38.457Z,0
2019-02-23T04:54:39.879Z,0
2019-02-23T04:55:41.527Z,0
2019-02-23T04:56:42.955Z,0
2019-02-23T04:57:44.630Z,0
2019-02-23T04:58:46.039Z,0
2019-02-23T04:59:47.738Z,0
2019-02-23T05:00:49.154Z,0
2019-02-23T05:01:50.582Z,0
2019-02-23T05:02:52.235Z,0
2019-02-23T05:03:53.689Z,0
2019-02-23T05:04:55.341Z,0
2019-02-23T05:05:57.564Z,0
2019-02-23T05:06:58.961Z,0
2019-02-23T05:08:00.490Z,0
2019-02-23T05:09:01.906Z,0
2019-02-23T05:10:03.568Z,0
2019-02-23T05:11:04.984Z,0
2019-02-23T05:12:06.419Z,0
2019-02-23T05:13:08.092Z,0
2019-02-23T05:14:09.511Z,0
2019-02-23T05:15:10.938Z,0
2019-02-23T05:16:12.601Z,0
2019-02-23T05:17:14.016Z,0
2019-02-23T05:18:15.698Z,0
2019-02-23T05:19:17.163Z,0
2019-02-23T05:20:18.793Z,0
2019-02-23T05:21:26.398Z,0
2019-02-23T05:22:21.850Z,0
2019-02-23T05:23:23.293Z,0
2019-02-23T05:24:24.990Z,0
2019-02-23T05:25:26.414Z,0
2019-02-23T05:26:27.847Z,0
2019-02-23T05:27:29.473Z,0
2019-02-23T05:28:30.936Z,0
2019-02-23T05:29:32.288Z,0
2019-02-23T05:30:33.814Z,0
2019-02-23T05:31:35.333Z,0
2019-02-23T05:32:36.769Z,0
2019-02-23T05:33:38.323Z,0
2019-02-23T05:34:39.759Z,0
2019-02-23T05:35:41.161Z,0
2019-02-23T05:36:42.961Z,0
2019-02-23T05:37:44.370Z,0
2019-02-23T05:38:46.025Z,0
2019-02-23T05:39:47.468Z,0
2019-02-23T05:40:49.050Z,0
2019-02-23T05:41:50.476Z,0
2019-02-23T05:43:00.448Z,0
2019-02-23T05:43:53.471Z,0
2019-02-23T05:44:54.994Z,0
2019-02-23T05:45:56.411Z,0
2019-02-23T05:46:58.105Z,0
2019-02-23T05:47:59.480Z,0
2019-02-23T05:49:01.314Z,0
2019-02-23T05:50:02.743Z,0
2019-02-23T05:51:04.227Z,0
2019-02-23T05:52:05.635Z,0
2019-02-23T05:53:07.321Z,0
2019-02-23T05:54:08.783Z,0
2019-02-23T05:55:10.455Z,0
2019-02-23T05:56:13.891Z,0
2019-02-23T05:57:21.213Z,0
2019-02-23T05:58:22.591Z,0
2019-02-23T05:59:24.204Z,0
2019-02-23T06:00:25.611Z,0
2019-02-23T06:01:27.255Z,0
2019-02-23T06:02:28.677Z,0
2019-02-23T06:03:30.342Z,0
2019-02-23T06:04:31.793Z,0
2019-02-23T06:05:33.639Z,0
2019-02-23T06:06:35.247Z,0
2019-02-23T06:07:37.347Z,0
2019-02-23T06:08:38.756Z,0
2019-02-23T06:09:40.420Z,0
2019-02-23T06:10:44.500Z,0
2019-02-23T06:11:43.502Z,0
2019-02-23T06:12:44.930Z,0
2019-02-23T06:13:46.599Z,0
2019-02-23T06:14:47.965Z,0
2019-02-23T06:15:49.485Z,0
2019-02-23T06:16:50.902Z,0
2019-02-23T06:17:52.564Z,0
2019-02-23T06:18:54.005Z,0
2019-02-23T06:19:55.661Z,0
2019-02-23T06:20:57.073Z,0
2019-02-23T06:21:58.709Z,0
2019-02-23T06:23:00.150Z,0
2019-02-23T06:24:01.577Z,0
2019-02-23T06:25:04.301Z,0
2019-02-23T06:26:05.715Z,0
2019-02-23T06:27:07.129Z,0
2019-02-23T06:28:08.842Z,0
2019-02-23T06:29:10.286Z,0
2019-02-23T06:30:11.850Z,0
2019-02-23T06:31:13.545Z,0
2019-02-23T06:32:14.964Z,0
2019-02-23T06:33:16.442Z,0
2019-02-23T06:34:18.044Z,0
2019-02-23T06:35:19.467Z,5
2019-02-23T06:36:20.915Z,5
2019-02-23T06:37:22.586Z,5
2019-02-23T06:38:24.060Z,5
2019-02-23T06:39:25.662Z,5
2019-02-23T06:40:27.107Z,5
2019-02-23T06:41:28.740Z,5
2019-02-23T06:42:30.168Z,5
2019-02-23T06:43:31.615Z,10
2019-02-23T06:44:33.285Z,10
2019-02-23T06:45:34.709Z,10
2019-02-23T06:46:36.140Z,10
2019-02-23T06:47:37.805Z,10
2019-02-23T06:48:39.221Z,10
2019-02-23T06:49:40.681Z,10
2019-02-23T06:50:42.330Z,15
2019-02-23T06:51:43.740Z,15
2019-02-23T06:52:45.238Z,15
2019-02-23T06:53:46.875Z,15
2019-02-23T06:54:48.388Z,15
2019-02-23T06:55:49.697Z,15
2019-02-23T06:56:51.408Z,15
2019-02-23T06:57:52.836Z,20
2019-02-23T06:58:54.251Z,20
2019-02-23T06:59:55.923Z,20
2019-02-23T07:00:57.346Z,20
2019-02-23T07:01:58.753Z,20
2019-02-23T07:03:00.432Z,25
2019-02-23T07:04:01.839Z,25
2019-02-23T07:05:03.229Z,25
2019-02-23T07:06:04.735Z,25
2019-02-23T07:07:06.147Z,25
2019-02-23T07:08:07.541Z,25
2019-02-23T07:09:09.058Z,25
2019-02-23T07:10:10.451Z,30
2019-02-23T07:11:11.938Z,30
2019-02-23T07:12:13.334Z,30
2019-02-23T07:13:14.732Z,30
2019-02-23T07:14:16.257Z,30
2019-02-23T07:15:17.658Z,30
2019-02-23T07:16:19.053Z,30
2019-02-23T07:17:20.581Z,35
2019-02-23T07:18:21.995Z,35
2019-02-23T07:19:23.383Z,35
2019-02-23T07:20:24.903Z,35
2019-02-23T07:21:26.314Z,35
2019-02-23T07:22:27.716Z,35
2019-02-23T07:23:29.221Z,35
2019-02-23T07:24:30.621Z,35
2019-02-23T07:25:32.135Z,35
2019-02-23T07:26:33.534Z,35
2019-02-23T07:27:35.191Z,35
2019-02-23T07:28:36.585Z,40
2019-02-23T07:29:38.069Z,40
2019-02-23T07:30:39.468Z,40
2019-02-23T07:31:41.026Z,40
2019-02-23T07:32:42.427Z,40
2019-02-23T07:33:44.037Z,40
2019-02-23T07:34:45.435Z,40
2019-02-23T07:35:46.924Z,40
2019-02-23T07:36:48.313Z,40
2019-02-23T07:37:49.851Z,40
2019-02-23T07:38:51.242Z,40
2019-02-23T07:39:52.891Z,40
2019-02-23T07:40:54.282Z,40
2019-02-23T07:41:55.766Z,40
2019-02-23T07:42:57.275Z,40
2019-02-23T07:43:58.670Z,40
2019-02-23T07:45:00.291Z,40
2019-02-23T07:46:01.689Z,40
2019-02-23T07:47:03.087Z,40
2019-02-23T07:48:04.613Z,40
2019-02-23T07:49:06.011Z,45
2019-02-23T07:50:07.492Z,45
2019-02-23T07:51:08.895Z,45
2019-02-23T07:52:10.378Z,45
2019-02-23T07:53:11.770Z,45
2019-02-23T07:54:13.255Z,45
2019-02-23T07:55:14.654Z,45
2019-02-23T07:56:16.143Z,45
2019-02-23T07:57:17.541Z,45
2019-02-23T07:58:19.018Z,45
2019-02-23T07:59:20.414Z,45
2019-02-23T08:00:21.898Z,50
2019-02-23T08:01:23.295Z,50
2019-02-23T08:02:25.835Z,50
2019-02-23T08:03:26.143Z,50
2019-02-23T08:04:27.659Z,50
2019-02-23T08:05:29.051Z,50
2019-02-23T08:06:30.539Z,50
2019-02-23T08:07:31.939Z,50
2019-02-23T08:08:33.420Z,50
2019-02-23T08:09:34.825Z,55
2019-02-23T08:10:36.227Z,55
2019-02-23T08:11:37.744Z,55
2019-02-23T08:12:39.137Z,55
2019-02-23T08:13:40.810Z,55
2019-02-23T08:14:42.077Z,55
2019-02-23T08:15:43.470Z,60
2019-02-23T08:16:44.866Z,60
2019-02-23T08:17:46.389Z,60
2019-02-23T08:18:47.788Z,60
2019-02-23T08:19:49.182Z,60
2019-02-23T08:20:50.710Z,60
2019-02-23T08:21:52.104Z,60
2019-02-23T08:22:53.596Z,65
2019-02-23T08:23:54.994Z,70
2019-02-23T08:24:56.391Z,70
2019-02-23T08:25:57.911Z,65
2019-02-23T08:26:59.310Z,65
2019-02-23T08:28:00.706Z,65
2019-02-23T08:29:02.233Z,65
2019-02-23T08:30:03.648Z,65
2019-02-23T08:31:05.113Z,65
2019-02-23T08:32:06.512Z,65
2019-02-23T08:33:07.994Z,65
2019-02-23T08:34:09.387Z,70
2019-02-23T08:35:10.789Z,75
2019-02-23T08:36:12.317Z,85
2019-02-23T08:37:13.716Z,100
2019-02-23T08:38:15.113Z,100
2019-02-23T08:39:16.639Z,95
2019-02-23T08:40:18.037Z,95
2019-02-23T08:41:19.520Z,95
2019-02-23T08:42:20.917Z,90
2019-02-23T08:43:22.402Z,105
2019-02-23T08:44:23.808Z,105
2019-02-23T08:45:25.279Z,95
2019-02-23T08:46:26.683Z,105
2019-02-23T08:47:28.164Z,105
2019-02-23T08:48:29.564Z,95
2019-02-23T08:49:30.960Z,110
2019-02-23T08:50:32.485Z,130
2019-02-23T08:51:33.884Z,125
2019-02-23T08:52:35.284Z,145
2019-02-23T08:53:36.809Z,265
2019-02-23T08:54:38.208Z,285
2019-02-23T08:55:39.604Z,150
2019-02-23T08:56:41.124Z,135
2019-02-23T08:57:42.526Z,155
2019-02-23T08:58:44.006Z,175
2019-02-23T08:59:45.413Z,140
2019-02-23T09:00:47.056Z,140
2019-02-23T09:01:48.328Z,225
2019-02-23T09:02:49.728Z,370
2019-02-23T09:03:51.127Z,355
2019-02-23T09:04:52.647Z,250
2019-02-23T09:05:54.051Z,330
2019-02-23T09:06:55.450Z,350
2019-02-23T09:07:56.970Z,355
2019-02-23T09:08:58.372Z,260
2019-02-23T09:09:59.771Z,310
2019-02-23T09:11:01.294Z,295
2019-02-23T09:12:02.687Z,290
2019-02-23T09:13:04.096Z,195
2019-02-23T09:14:05.618Z,210
2019-02-23T09:15:07.016Z,230
2019-02-23T09:16:08.421Z,205
2019-02-23T09:17:09.939Z,190
2019-02-23T09:18:11.372Z,240
2019-02-23T09:19:12.770Z,350
2019-02-23T09:20:14.260Z,410
2019-02-23T09:21:15.661Z,445
2019-02-23T09:22:17.139Z,460
2019-02-23T09:23:18.541Z,500
2019-02-23T09:24:20.025Z,480
2019-02-23T09:25:21.422Z,655
2019-02-23T09:26:22.904Z,635
2019-02-23T09:27:24.303Z,615
2019-02-23T09:28:25.779Z,520
2019-02-23T09:29:27.179Z,325
2019-02-23T09:30:28.586Z,330
2019-02-23T09:31:30.102Z,430
2019-02-23T09:32:31.500Z,285
2019-02-23T09:33:33.184Z,225
2019-02-23T09:34:35.215Z,195
2019-02-23T09:35:36.615Z,145
2019-02-23T09:36:38.152Z,165
2019-02-23T09:37:39.571Z,265
2019-02-23T09:38:41.206Z,305
2019-02-23T09:39:42.625Z,210
2019-02-23T09:40:44.099Z,130
2019-02-23T09:41:45.891Z,125
2019-02-23T09:42:47.380Z,120
2019-02-23T09:43:48.808Z,105
2019-02-23T09:44:50.466Z,100
2019-02-23T09:45:51.864Z,95
2019-02-23T09:46:53.348Z,100
2019-02-23T09:47:54.774Z,105
2019-02-23T09:48:56.455Z,105
2019-02-23T09:49:57.598Z,115
2019-02-23T09:50:59.156Z,150
2019-02-23T09:52:00.513Z,160
2019-02-23T09:53:10.810Z,150
2019-02-23T09:54:03.352Z,155
2019-02-23T09:55:04.868Z,200
2019-02-23T09:56:06.282Z,205
2019-02-23T09:57:07.753Z,160
2019-02-23T09:58:09.158Z,145
2019-02-23T09:59:10.634Z,130
2019-02-23T10:00:12.050Z,120
2019-02-23T10:01:13.457Z,120
2019-02-23T10:02:14.949Z,130
2019-02-23T10:03:16.355Z,150
2019-02-23T10:04:17.759Z,155
2019-02-23T10:05:19.276Z,150
2019-02-23T10:06:20.685Z,145
2019-02-23T10:07:22.154Z,140
2019-02-23T10:08:23.954Z,160
2019-02-23T10:09:25.445Z,160
2019-02-23T10:10:26.845Z,150
2019-02-23T10:11:28.326Z,145
2019-02-23T10:12:29.755Z,145
2019-02-23T10:13:31.412Z,150
2019-02-23T10:14:32.809Z,165
2019-02-23T10:15:34.291Z,175
2019-02-23T10:16:35.693Z,185
2019-02-23T10:17:37.093Z,210
2019-02-23T10:18:38.628Z,240
2019-02-23T10:19:40.019Z,265
2019-02-23T10:20:41.420Z,285
2019-02-23T10:21:42.934Z,310
2019-02-23T10:22:44.336Z,320
2019-02-23T10:23:45.735Z,270
2019-02-23T10:24:47.257Z,305
2019-02-23T10:25:48.660Z,325
2019-02-23T10:26:50.078Z,310
2019-02-23T10:27:51.592Z,330
2019-02-23T10:28:52.992Z,340
2019-02-23T10:29:54.423Z,325
2019-02-23T10:30:55.929Z,340
2019-02-23T10:31:57.336Z,390
2019-02-23T10:32:58.752Z,445
2019-02-23T10:34:00.223Z,465
2019-02-23T10:35:01.638Z,480
2019-02-23T10:36:03.412Z,420
2019-02-23T10:37:04.998Z,335
2019-02-23T10:38:06.395Z,335
2019-02-23T10:39:08.038Z,295
2019-02-23T10:40:09.447Z,215
2019-02-23T10:41:10.858Z,190
2019-02-23T10:42:12.361Z,160
2019-02-23T10:43:13.759Z,150
2019-02-23T10:44:15.165Z,145
2019-02-23T10:45:16.701Z,145
2019-02-23T10:46:18.487Z,150
2019-02-23T10:47:19.890Z,150
2019-02-23T10:48:21.423Z,155
2019-02-23T10:49:22.818Z,155
2019-02-23T10:50:24.219Z,155
2019-02-23T10:51:25.796Z,160
2019-02-23T10:52:27.205Z,160
2019-02-23T10:53:32.834Z,160
2019-02-23T10:54:30.616Z,160
2019-02-23T10:55:32.114Z,160
2019-02-23T10:56:33.525Z,165
2019-02-23T10:57:34.928Z,165
2019-02-23T10:58:36.431Z,165
2019-02-23T10:59:37.830Z,170
2019-02-23T11:00:39.235Z,170
2019-02-23T11:01:40.751Z,175
2019-02-23T11:02:42.153Z,175
2019-02-23T11:03:43.632Z,170
2019-02-23T11:04:45.035Z,170
2019-02-23T11:05:46.517Z,170
2019-02-23T11:06:47.915Z,160
2019-02-23T11:07:49.393Z,160
2019-02-23T11:08:50.797Z,160
2019-02-23T11:09:52.283Z,155
2019-02-23T11:10:53.685Z,155
2019-02-23T11:11:55.102Z,150
2019-02-23T11:12:56.598Z,150
2019-02-23T11:13:57.999Z,150
2019-02-23T11:14:59.403Z,150
2019-02-23T11:16:00.920Z,145
2019-02-23T11:17:02.326Z,145
2019-02-23T11:18:03.739Z,145
2019-02-23T11:19:05.244Z,145
2019-02-23T11:20:06.642Z,145
2019-02-23T11:21:08.045Z,145
2019-02-23T11:22:09.561Z,145
2019-02-23T11:23:10.962Z,145
2019-02-23T11:24:12.371Z,140
2019-02-23T11:25:13.882Z,140
2019-02-23T11:26:15.662Z,140
2019-02-23T11:27:17.061Z,135
2019-02-23T11:28:18.990Z,135
2019-02-23T11:29:20.394Z,135
2019-02-23T11:30:21.905Z,135
2019-02-23T11:31:23.308Z,135
2019-02-23T11:32:24.725Z,125
2019-02-23T11:33:26.601Z,125
2019-02-23T11:34:28.006Z,125
2019-02-23T11:35:29.404Z,120
2019-02-23T11:36:30.959Z,120
2019-02-23T11:37:32.321Z,120
2019-02-23T11:38:33.836Z,125
2019-02-23T11:39:35.240Z,125
2019-02-23T11:40:36.719Z,120
2019-02-23T11:41:38.129Z,120
2019-02-23T11:42:39.597Z,120
2019-02-23T11:43:41.296Z,120
2019-02-23T11:44:42.887Z,120
2019-02-23T11:45:44.672Z,120
2019-02-23T11:46:59.962Z,120
2019-02-23T11:47:47.712Z,120
2019-02-23T11:48:49.264Z,120
2019-02-23T11:49:50.873Z,120
2019-02-23T11:50:52.404Z,120
2019-02-23T11:51:54.203Z,120
2019-02-23T11:52:55.606Z,120
2019-02-23T11:53:57.080Z,115
2019-02-23T11:54:58.480Z,110
2019-02-23T11:55:59.884Z,110
2019-02-23T11:57:01.414Z,105
2019-02-23T11:58:02.836Z,105
2019-02-23T11:59:04.242Z,105
2019-02-23T12:00:05.728Z,100
2019-02-23T12:01:07.185Z,95
2019-02-23T12:02:08.589Z,95
2019-02-23T12:03:10.045Z,100
2019-02-23T12:04:11.459Z,90
2019-02-23T12:05:13.184Z,90
2019-02-23T12:06:14.784Z,90
2019-02-23T12:07:16.186Z,90
2019-02-23T12:08:17.590Z,90
2019-02-23T12:09:19.130Z,90
2019-02-23T12:10:20.530Z,90
2019-02-23T12:11:21.935Z,90
2019-02-23T12:12:23.420Z,95
2019-02-23T12:13:24.821Z,95
2019-02-23T12:14:26.232Z,100
2019-02-23T12:15:27.752Z,105
2019-02-23T12:16:29.110Z,105
2019-02-23T12:17:30.512Z,110
2019-02-23T12:18:32.066Z,115
2019-02-23T12:19:33.468Z,120
2019-02-23T12:20:34.870Z,120
2019-02-23T12:21:36.388Z,120
2019-02-23T12:22:37.789Z,120
2019-02-23T12:23:39.265Z,120
2019-02-23T12:24:40.672Z,120
2019-02-23T12:25:42.146Z,120
2019-02-23T12:26:43.550Z,120
2019-02-23T12:27:44.954Z,120
2019-02-23T12:28:46.468Z,120
2019-02-23T12:29:47.874Z,120
2019-02-23T12:30:49.278Z,120
2019-02-23T12:31:50.790Z,115
2019-02-23T12:32:52.191Z,115
2019-02-23T12:33:53.594Z,110
2019-02-23T12:34:55.110Z,110
2019-02-23T12:35:56.514Z,105
2019-02-23T12:36:57.915Z,105
2019-02-23T12:37:59.443Z,105
2019-02-23T12:39:00.847Z,105
2019-02-23T12:40:02.312Z,100
2019-02-23T12:41:03.724Z,100
2019-02-23T12:42:05.202Z,95
2019-02-23T12:43:06.633Z,95
2019-02-23T12:44:08.031Z,95
2019-02-23T12:45:09.516Z,95
2019-02-23T12:46:10.915Z,90
2019-02-23T12:47:12.315Z,90
2019-02-23T12:48:13.836Z,90
2019-02-23T12:49:15.236Z,90
2019-02-23T12:50:16.640Z,95
2019-02-23T12:51:18.156Z,95
2019-02-23T12:52:19.558Z,95
2019-02-23T12:53:20.956Z,90
2019-02-23T12:54:22.476Z,90
2019-02-23T12:55:23.880Z,90
2019-02-23T12:56:25.364Z,95
2019-02-23T12:57:26.779Z,95
2019-02-23T12:58:28.182Z,95
2019-02-23T12:59:29.707Z,95
2019-02-23T13:00:31.104Z,95
2019-02-23T13:01:32.505Z,95
2019-02-23T13:02:34.000Z,90
2019-02-23T13:03:35.419Z,90
2019-02-23T13:04:37.177Z,90
2019-02-23T13:05:38.582Z,90
2019-02-23T13:06:40.189Z,90
2019-02-23T13:07:41.970Z,85
2019-02-23T13:08:43.462Z,85
2019-02-23T13:09:44.865Z,85
2019-02-23T13:10:46.342Z,85
2019-02-23T13:11:47.818Z,85
2019-02-23T13:12:49.270Z,85
2019-02-23T13:13:50.898Z,85
2019-02-23T13:14:52.707Z,85
2019-02-23T13:15:54.522Z,85
2019-02-23T13:16:56.040Z,85
2019-02-23T13:17:57.540Z,85
2019-02-23T13:18:58.887Z,85
2019-02-23T13:20:00.546Z,85
2019-02-23T13:21:01.964Z,90
2019-02-23T13:22:03.420Z,90
2019-02-23T13:23:04.829Z,95
2019-02-23T13:24:06.303Z,95
2019-02-23T13:25:07.720Z,95
2019-02-23T13:26:09.182Z,95
2019-02-23T13:27:10.585Z,95
2019-02-23T13:28:12.083Z,100
2019-02-23T13:29:13.483Z,105
2019-02-23T13:30:14.946Z,100
2019-02-23T13:31:16.411Z,95
2019-02-23T13:32:18.024Z,100
2019-02-23T13:33:19.440Z,100
2019-02-23T13:34:20.911Z,100
2019-02-23T13:35:22.312Z,100
2019-02-23T13:36:23.796Z,100
2019-02-23T13:37:25.200Z,95
2019-02-23T13:38:26.674Z,95
2019-02-23T13:39:28.075Z,95
2019-02-23T13:40:29.552Z,95
2019-02-23T13:41:30.956Z,95
2019-02-23T13:42:32.436Z,90
2019-02-23T13:43:33.846Z,90
2019-02-23T13:44:35.268Z,90
2019-02-23T13:45:36.753Z,90
2019-02-23T13:46:38.162Z,90
2019-02-23T13:47:39.554Z,90
2019-02-23T13:48:41.074Z,85
2019-02-23T13:49:42.862Z,85
2019-02-23T13:50:44.364Z,85
2019-02-23T13:51:45.766Z,85
2019-02-23T13:52:47.245Z,85
2019-02-23T13:53:48.651Z,80
2019-02-23T13:54:50.052Z,80
2019-02-23T13:55:51.564Z,80
2019-02-23T13:56:52.973Z,80
2019-02-23T13:57:54.368Z,75
2019-02-23T13:58:55.887Z,75
2019-02-23T13:59:57.294Z,75
2019-02-23T14:00:58.769Z,70
2019-02-23T14:02:00.174Z,70
2019-02-23T14:03:01.649Z,65
2019-02-23T14:04:03.054Z,70
2019-02-23T14:05:04.531Z,65
2019-02-23T14:06:05.933Z,65
2019-02-23T14:07:07.413Z,65
2019-02-23T14:08:08.831Z,65
2019-02-23T14:09:10.238Z,65
2019-02-23T14:10:11.736Z,60
2019-02-23T14:11:13.141Z,65
2019-02-23T14:12:14.532Z,65
2019-02-23T14:13:16.055Z,60
2019-02-23T14:14:17.456Z,60
2019-02-23T14:15:18.884Z,60
2019-02-23T14:16:20.373Z,60
2019-02-23T14:17:21.781Z,60
2019-02-23T14:18:23.177Z,60
2019-02-23T14:19:24.694Z,60
2019-02-23T14:20:26.105Z,60
2019-02-23T14:21:27.965Z,60
2019-02-23T14:22:29.367Z,65
2019-02-23T14:23:30.866Z,65
2019-02-23T14:24:32.287Z,65
2019-02-23T14:25:33.692Z,65
2019-02-23T14:26:35.193Z,65
2019-02-23T14:27:36.621Z,70
2019-02-23T14:28:38.024Z,70
2019-02-23T14:29:39.903Z,70
2019-02-23T14:30:41.307Z,70
2019-02-23T14:31:43.242Z,65
2019-02-23T14:32:46.928Z,65
2019-02-23T14:33:46.102Z,65
2019-02-23T14:34:47.504Z,65
2019-02-23T14:35:48.918Z,65
2019-02-23T14:36:50.422Z,60
2019-02-23T14:37:51.823Z,60
2019-02-23T14:38:53.248Z,55
2019-02-23T14:39:56.702Z,50
2019-02-23T14:40:56.172Z,50
2019-02-23T14:41:57.640Z,45
2019-02-23T14:42:59.334Z,45